KBIF

Biggs AAF (Fort Bliss) Airport

Fort Bliss/El Paso/, Texas, USA
METAR KBIF 220558Z AUTO 00000KT 10SM CLR 15/M02 A3011 RMK AO2 SLP152 T01451022 10235 20144 50009 $
Observed Flight Rules
Apr-22 @ 05:58 UTC (54 minutes ago) Visual Flight Rules
Visibility Clouds
10 miles
  • Clear skies
Temperatures Readings
Current 15°C / 59°F
Dewpoint -2°C / 28°F
Humidity 31%
Altimeter 30.11" Hg
Pressure 1015.2 hPa
Elevation 1203
METAR KBIF 220558Z AUTO 00000KT 10SM CLR 15/M02 A3011 RMK AO2 SLP152 T01451022 10235 20144 50009 $
Observed Flight Rules
Apr-22 @ 05:58 UTC
(54 minutes ago)
VFR
Clouds
  • Clear skies
Temperature Dewpoint
15°C / 59°F -2°C / 28°F
Humidity Altimeter Pressure
31% 30.11" Hg 1015.2 hPa